createdAt,value
2018-03-29T00:02:01.426Z,8.10
2018-03-29T00:04:29.694Z,8.10
2018-03-29T00:06:57.158Z,8.00
2018-03-29T00:09:24.630Z,8.00
2018-03-29T00:11:52.122Z,8.00
2018-03-29T00:14:19.616Z,8.00
2018-03-29T00:16:47.105Z,8.00
2018-03-29T00:19:14.608Z,7.90
2018-03-29T00:21:42.104Z,7.90
2018-03-29T00:24:09.613Z,7.90
2018-03-29T00:26:37.279Z,7.90
2018-03-29T00:29:04.766Z,7.80
2018-03-29T00:31:32.227Z,7.80
2018-03-29T00:33:59.734Z,7.80
2018-03-29T00:36:27.960Z,7.60
2018-03-29T00:38:55.444Z,7.60
2018-03-29T00:41:22.930Z,7.50
2018-03-29T00:43:51.190Z,7.40
2018-03-29T00:46:19.475Z,7.40
2018-03-29T00:48:47.722Z,7.40
2018-03-29T00:51:15.199Z,7.30
2018-03-29T00:53:45.291Z,7.40
2018-03-29T00:56:12.799Z,7.30
2018-03-29T00:58:41.057Z,7.20
2018-03-29T01:01:08.535Z,7.20
2018-03-29T01:03:36.054Z,7.20
2018-03-29T01:06:04.243Z,7.10
2018-03-29T01:08:33.643Z,7.10
2018-03-29T01:11:01.138Z,7.00
2018-03-29T01:13:29.403Z,7.00
2018-03-29T01:15:57.014Z,7.00
2018-03-29T01:18:24.544Z,6.90
2018-03-29T01:20:52.117Z,6.90
2018-03-29T01:23:19.638Z,6.90
2018-03-29T01:25:47.909Z,6.90
2018-03-29T01:28:15.395Z,6.90
2018-03-29T01:30:42.920Z,6.90
2018-03-29T01:33:11.226Z,6.80
2018-03-29T01:35:38.781Z,6.80
2018-03-29T01:38:07.041Z,6.80
2018-03-29T01:40:34.522Z,6.80
2018-03-29T01:43:02.829Z,6.60
2018-03-29T01:45:30.510Z,6.60
2018-03-29T01:47:58.757Z,6.60
2018-03-29T01:50:26.273Z,6.60
2018-03-29T01:52:53.754Z,6.70
2018-03-29T01:55:21.257Z,6.60
2018-03-29T01:57:48.793Z,6.70
2018-03-29T02:00:16.300Z,6.70
2018-03-29T02:02:43.784Z,6.70
2018-03-29T02:05:12.021Z,6.70
2018-03-29T02:07:40.301Z,6.70
2018-03-29T02:10:08.574Z,6.70
2018-03-29T02:12:36.879Z,6.70
2018-03-29T02:15:04.449Z,6.70
2018-03-29T02:17:31.933Z,6.70
2018-03-29T02:19:59.455Z,6.60
2018-03-29T02:22:27.035Z,6.60
2018-03-29T02:24:54.595Z,6.70
2018-03-29T02:27:22.881Z,6.60
2018-03-29T02:29:50.367Z,6.60
2018-03-29T02:32:17.857Z,6.60
2018-03-29T02:34:45.319Z,6.60
2018-03-29T02:37:12.829Z,6.50
2018-03-29T02:39:40.400Z,6.50
2018-03-29T02:42:07.894Z,6.40
2018-03-29T02:44:35.516Z,6.40
2018-03-29T02:47:03.053Z,6.40
2018-03-29T02:49:30.610Z,6.30
2018-03-29T02:51:58.104Z,6.20
2018-03-29T02:54:25.622Z,6.20
2018-03-29T02:56:53.912Z,6.10
2018-03-29T02:59:22.221Z,6.10
2018-03-29T03:01:49.694Z,6.10
2018-03-29T03:04:17.213Z,6.10
2018-03-29T03:06:44.779Z,6.10
2018-03-29T03:09:12.335Z,6.10
2018-03-29T03:11:39.870Z,6.10
2018-03-29T03:14:08.100Z,6.10
2018-03-29T03:16:35.761Z,6.10
2018-03-29T03:19:03.307Z,6.10
2018-03-29T03:21:30.784Z,6.00
2018-03-29T03:23:58.424Z,6.00
2018-03-29T03:26:26.245Z,5.90
2018-03-29T03:28:53.741Z,5.80
2018-03-29T03:31:21.380Z,5.80
2018-03-29T03:33:48.954Z,5.80
2018-03-29T03:36:16.513Z,5.80
2018-03-29T03:38:44.068Z,5.80
2018-03-29T03:41:11.550Z,5.70
2018-03-29T03:43:39.092Z,5.70
2018-03-29T03:46:06.592Z,5.70
2018-03-29T03:48:34.084Z,5.70
2018-03-29T03:51:01.594Z,5.70
2018-03-29T03:53:29.082Z,5.70
2018-03-29T03:55:57.062Z,5.70
2018-03-29T03:58:24.539Z,5.70
2018-03-29T04:00:52.068Z,5.70
2018-03-29T04:03:19.606Z,5.70
2018-03-29T04:05:47.920Z,5.70
2018-03-29T04:08:15.424Z,5.70
2018-03-29T04:10:42.930Z,5.60
2018-03-29T04:13:10.445Z,5.60
2018-03-29T04:15:37.962Z,5.50
2018-03-29T04:18:05.664Z,5.40
2018-03-29T04:20:33.300Z,5.40
2018-03-29T04:23:00.800Z,5.40
2018-03-29T04:25:28.416Z,5.40
2018-03-29T04:27:55.924Z,5.40
2018-03-29T04:30:23.418Z,5.40
2018-03-29T04:32:50.939Z,5.40
2018-03-29T04:35:18.504Z,5.50
2018-03-29T04:37:46.016Z,5.50
2018-03-29T04:40:13.644Z,5.50
2018-03-29T04:42:41.206Z,5.50
2018-03-29T04:45:08.864Z,5.50
2018-03-29T04:47:37.352Z,5.50
2018-03-29T04:50:05.605Z,5.50
2018-03-29T04:52:33.078Z,5.50
2018-03-29T04:55:00.601Z,5.50
2018-03-29T04:57:28.154Z,5.50
2018-03-29T04:59:55.713Z,5.50
2018-03-29T05:02:23.185Z,5.50
2018-03-29T05:04:50.944Z,5.50
2018-03-29T05:07:18.525Z,5.50
2018-03-29T05:09:46.003Z,5.60
2018-03-29T05:12:13.648Z,5.50
2018-03-29T05:14:41.209Z,5.60
2018-03-29T05:17:08.697Z,5.60
2018-03-29T05:19:36.315Z,5.50
2018-03-29T05:22:03.801Z,5.50
2018-03-29T05:24:31.313Z,5.50
2018-03-29T05:26:58.788Z,5.50
2018-03-29T05:29:26.304Z,5.40
2018-03-29T05:31:54.555Z,5.50
2018-03-29T05:34:22.063Z,5.50
2018-03-29T05:36:49.674Z,5.50
2018-03-29T05:39:17.159Z,5.60
2018-03-29T05:41:44.702Z,5.60
2018-03-29T05:44:12.190Z,5.60
2018-03-29T05:46:40.425Z,5.50
2018-03-29T05:49:07.933Z,5.50
2018-03-29T05:51:36.187Z,5.60
2018-03-29T05:54:03.700Z,5.60
2018-03-29T05:56:31.975Z,5.70
2018-03-29T05:58:59.590Z,5.70
2018-03-29T06:01:27.249Z,5.80
2018-03-29T06:03:54.809Z,5.80
2018-03-29T06:06:22.305Z,5.90
2018-03-29T06:08:50.567Z,6.00
2018-03-29T06:11:18.127Z,5.90
2018-03-29T06:13:45.602Z,6.00
2018-03-29T06:16:16.968Z,6.00
2018-03-29T06:18:44.523Z,6.00
2018-03-29T06:21:12.081Z,6.10
2018-03-29T06:23:39.641Z,6.10
2018-03-29T06:26:07.494Z,6.10
2018-03-29T06:28:34.975Z,6.10
2018-03-29T06:31:02.699Z,6.10
2018-03-29T06:33:30.173Z,6.10
2018-03-29T06:35:58.267Z,6.10
2018-03-29T06:38:25.824Z,6.10
2018-03-29T06:40:53.339Z,6.10
2018-03-29T06:43:22.267Z,6.10
2018-03-29T06:45:49.778Z,6.10
2018-03-29T06:48:20.805Z,6.10
2018-03-29T06:50:49.069Z,6.10
2018-03-29T06:53:16.559Z,6.10
2018-03-29T06:55:44.828Z,6.10
2018-03-29T06:58:12.402Z,6.10
2018-03-29T07:00:39.887Z,6.10
2018-03-29T07:03:07.381Z,6.10
2018-03-29T07:05:35.629Z,6.10
2018-03-29T07:08:03.176Z,6.10
2018-03-29T07:10:30.655Z,6.10
2018-03-29T07:12:58.293Z,6.10
2018-03-29T07:15:25.848Z,6.10
2018-03-29T07:17:53.345Z,6.00
2018-03-29T07:20:20.989Z,6.10
2018-03-29T07:22:48.471Z,6.20
2018-03-29T07:25:15.952Z,6.30
2018-03-29T07:27:43.419Z,6.40
2018-03-29T07:30:11.683Z,6.70
2018-03-29T07:32:39.195Z,6.70
2018-03-29T07:35:06.666Z,6.80
2018-03-29T07:37:34.140Z,6.90
2018-03-29T07:40:01.681Z,6.90
2018-03-29T07:42:29.250Z,7.00
2018-03-29T07:44:56.796Z,7.00
2018-03-29T07:47:24.267Z,7.00
2018-03-29T07:49:52.516Z,7.10
2018-03-29T07:52:20.016Z,7.00
2018-03-29T07:54:48.332Z,7.00
2018-03-29T07:57:15.957Z,7.00
2018-03-29T07:59:43.512Z,7.10
2018-03-29T08:02:11.032Z,7.30
2018-03-29T08:04:39.278Z,7.50
2018-03-29T08:07:06.783Z,7.50
2018-03-29T08:09:34.286Z,7.50
2018-03-29T08:12:01.817Z,7.50
2018-03-29T08:14:29.358Z,7.50
2018-03-29T08:16:57.660Z,7.60
2018-03-29T08:19:25.239Z,7.60
2018-03-29T08:21:52.716Z,7.60
2018-03-29T08:24:20.216Z,7.60
2018-03-29T08:26:47.692Z,7.70
2018-03-29T08:29:15.198Z,7.70
2018-03-29T08:31:42.687Z,7.80
2018-03-29T08:34:10.171Z,7.70
2018-03-29T08:36:37.698Z,7.60
2018-03-29T08:39:06.116Z,7.50
2018-03-29T08:41:34.444Z,7.30
2018-03-29T08:44:01.918Z,7.30
2018-03-29T08:46:31.038Z,7.20
2018-03-29T08:48:58.532Z,7.10
2018-03-29T08:51:26.072Z,7.10
2018-03-29T08:53:53.938Z,7.10
2018-03-29T08:56:23.261Z,7.10
2018-03-29T08:58:51.566Z,7.20
2018-03-29T09:01:19.066Z,7.20
2018-03-29T09:03:47.310Z,7.40
2018-03-29T09:06:14.832Z,7.40
2018-03-29T09:08:42.333Z,7.50
2018-03-29T09:11:09.870Z,7.50
2018-03-29T09:13:37.437Z,7.60
2018-03-29T09:16:04.950Z,7.60
2018-03-29T09:18:32.432Z,7.80
2018-03-29T09:20:59.978Z,8.00
2018-03-29T09:23:27.501Z,8.10
2018-03-29T09:25:55.083Z,8.20
2018-03-29T09:28:22.578Z,8.30
2018-03-29T09:30:50.808Z,8.40
2018-03-29T09:33:18.334Z,8.30
2018-03-29T09:35:45.817Z,8.40
2018-03-29T09:38:13.476Z,8.40
2018-03-29T09:40:41.045Z,8.40
2018-03-29T09:43:08.510Z,8.40
2018-03-29T09:45:36.055Z,8.50
2018-03-29T09:48:03.532Z,8.50
2018-03-29T09:50:31.817Z,8.60
2018-03-29T09:52:59.394Z,8.60
2018-03-29T09:55:27.774Z,8.50
2018-03-29T09:57:55.317Z,8.50
2018-03-29T10:00:28.458Z,8.50
2018-03-29T10:02:56.726Z,8.50
2018-03-29T10:05:29.866Z,8.50
2018-03-29T10:07:57.480Z,8.50
2018-03-29T10:10:24.968Z,8.50
2018-03-29T10:12:52.499Z,8.60
2018-03-29T10:15:19.993Z,8.60
2018-03-29T10:17:47.603Z,8.70
2018-03-29T10:20:15.157Z,8.70
2018-03-29T10:22:42.693Z,8.70
2018-03-29T10:25:11.094Z,8.90
2018-03-29T10:27:38.599Z,8.90
2018-03-29T10:30:06.112Z,9.00
2018-03-29T10:32:33.599Z,9.00
2018-03-29T10:35:01.124Z,9.00
2018-03-29T10:37:28.643Z,9.00
2018-03-29T10:39:56.150Z,9.10
2018-03-29T10:42:23.616Z,9.30
2018-03-29T10:44:51.162Z,9.40
2018-03-29T10:47:19.563Z,9.60
2018-03-29T10:49:47.123Z,9.60
2018-03-29T10:52:14.615Z,9.60
2018-03-29T10:54:42.107Z,9.50
2018-03-29T10:57:09.622Z,9.50
2018-03-29T10:59:37.938Z,9.30
2018-03-29T11:02:05.418Z,9.30
2018-03-29T11:04:32.894Z,9.30
2018-03-29T11:07:01.188Z,9.50
2018-03-29T11:09:28.751Z,9.50
2018-03-29T11:11:56.231Z,9.50
2018-03-29T11:14:23.869Z,9.60
2018-03-29T11:16:52.196Z,9.50
2018-03-29T11:19:19.677Z,9.50
2018-03-29T11:21:47.211Z,9.40
2018-03-29T11:24:14.704Z,9.30
2018-03-29T11:26:42.202Z,9.30
2018-03-29T11:29:09.734Z,9.30
2018-03-29T11:31:37.430Z,9.30
2018-03-29T11:34:04.918Z,9.40
2018-03-29T11:36:32.503Z,9.50
2018-03-29T11:39:00.035Z,9.60
2018-03-29T11:41:28.272Z,9.90
2018-03-29T11:43:55.776Z,9.90
2018-03-29T11:46:23.240Z,9.90
2018-03-29T11:48:50.713Z,10.00
2018-03-29T11:51:18.264Z,10.10
2018-03-29T11:53:45.770Z,10.10
2018-03-29T11:56:13.261Z,10.10
2018-03-29T11:58:40.774Z,10.10
2018-03-29T12:01:08.260Z,9.90
2018-03-29T12:03:35.724Z,9.70
2018-03-29T12:06:03.336Z,9.70
2018-03-29T12:08:30.964Z,9.70
2018-03-29T12:10:59.256Z,10.00
2018-03-29T12:13:26.820Z,10.00
2018-03-29T12:15:54.306Z,10.10
2018-03-29T12:18:21.806Z,10.20
2018-03-29T12:20:49.317Z,10.30
2018-03-29T12:23:16.876Z,10.30
2018-03-29T12:25:44.438Z,10.20
2018-03-29T12:28:12.862Z,10.00
2018-03-29T12:30:40.445Z,10.00
2018-03-29T12:33:07.921Z,9.90
2018-03-29T12:35:35.436Z,9.80
2018-03-29T12:38:02.938Z,9.60
2018-03-29T12:40:30.498Z,9.40
2018-03-29T12:42:58.058Z,9.40
2018-03-29T12:45:25.544Z,9.30
2018-03-29T12:47:53.807Z,9.50
2018-03-29T12:50:21.549Z,9.50
2018-03-29T12:52:49.005Z,9.60
2018-03-29T12:58:18.017Z,10.30
2018-03-29T13:00:45.584Z,10.30
2018-03-29T13:03:13.090Z,10.30
2018-03-29T13:05:41.921Z,10.30
2018-03-29T13:08:09.429Z,10.30
2018-03-29T13:10:36.967Z,10.40
2018-03-29T13:13:05.209Z,10.60
2018-03-29T13:15:32.694Z,10.60
2018-03-29T13:18:00.210Z,10.70
2018-03-29T13:20:27.709Z,10.70
2018-03-29T13:22:55.218Z,10.80
2018-03-29T13:25:22.742Z,10.70
2018-03-29T13:27:50.241Z,10.70
2018-03-29T13:30:17.720Z,10.70
2018-03-29T13:32:46.135Z,10.90
2018-03-29T13:35:13.633Z,10.90
2018-03-29T13:37:41.923Z,10.80
2018-03-29T13:40:10.230Z,10.60
2018-03-29T13:42:37.728Z,10.60
2018-03-29T13:45:05.239Z,10.50
2018-03-29T13:47:33.549Z,10.50
2018-03-29T13:50:01.029Z,10.50
2018-03-29T13:52:28.529Z,10.60
2018-03-29T13:54:56.838Z,10.70
2018-03-29T13:57:24.387Z,10.70
2018-03-29T13:59:51.906Z,10.70
2018-03-29T14:02:20.230Z,10.60
2018-03-29T14:04:47.718Z,10.60
2018-03-29T14:07:15.989Z,10.80
2018-03-29T14:09:43.501Z,10.70
2018-03-29T14:12:10.982Z,10.70
2018-03-29T14:14:38.461Z,10.80
2018-03-29T14:17:06.076Z,10.80
2018-03-29T14:19:33.580Z,10.90
2018-03-29T14:22:01.193Z,11.00
2018-03-29T14:24:28.691Z,11.00
2018-03-29T14:26:56.263Z,11.10
2018-03-29T14:29:23.807Z,11.00
2018-03-29T14:31:51.285Z,11.00
2018-03-29T14:34:19.013Z,11.10
2018-03-29T14:36:47.273Z,11.20
2018-03-29T14:39:14.894Z,11.20
2018-03-29T14:41:42.557Z,11.30
2018-03-29T14:44:10.043Z,11.40
2018-03-29T14:46:37.543Z,11.40
2018-03-29T14:49:05.174Z,11.50
2018-03-29T14:51:32.695Z,11.60
2018-03-29T14:54:01.003Z,11.60
2018-03-29T14:56:28.547Z,11.60
2018-03-29T14:58:56.054Z,11.50
2018-03-29T15:01:24.356Z,11.30
2018-03-29T15:03:51.821Z,11.20
2018-03-29T15:06:19.371Z,11.10
2018-03-29T15:08:46.850Z,11.00
2018-03-29T15:11:14.335Z,10.90
2018-03-29T15:13:41.923Z,10.80
2018-03-29T15:16:09.342Z,10.80
2018-03-29T15:18:37.572Z,11.00
2018-03-29T15:21:05.064Z,11.00
2018-03-29T15:23:33.352Z,11.10
2018-03-29T15:26:02.063Z,11.20
2018-03-29T15:28:30.145Z,11.20
2018-03-29T15:30:57.650Z,11.40
2018-03-29T15:33:25.171Z,11.60
2018-03-29T15:35:52.675Z,11.80
2018-03-29T15:38:20.192Z,11.90
2018-03-29T15:40:47.684Z,11.80
2018-03-29T15:43:15.994Z,12.00
2018-03-29T15:45:43.569Z,11.90
2018-03-29T15:48:11.072Z,12.20
2018-03-29T15:50:38.557Z,12.40
2018-03-29T15:53:06.193Z,12.40
2018-03-29T15:55:33.751Z,12.40
2018-03-29T15:58:01.255Z,12.60
2018-03-29T16:00:28.733Z,13.20
2018-03-29T16:02:56.991Z,14.90
2018-03-29T16:05:24.510Z,14.90
2018-03-29T16:07:52.002Z,15.00
2018-03-29T16:10:19.505Z,15.10
2018-03-29T16:12:47.087Z,15.40
2018-03-29T16:15:14.904Z,15.60
2018-03-29T16:17:42.454Z,15.50
2018-03-29T16:20:09.982Z,14.90
2018-03-29T16:22:38.221Z,13.40
2018-03-29T16:25:05.723Z,13.30
2018-03-29T16:27:33.914Z,12.70
2018-03-29T16:30:01.410Z,12.30
2018-03-29T16:32:28.928Z,12.00
2018-03-29T16:34:56.416Z,11.70
2018-03-29T16:37:23.935Z,11.40
2018-03-29T16:39:51.525Z,11.20
2018-03-29T16:42:18.999Z,11.00
2018-03-29T16:44:46.512Z,10.90
2018-03-29T16:47:14.082Z,10.70
2018-03-29T16:49:41.616Z,10.60
2018-03-29T16:52:10.232Z,10.40
2018-03-29T16:54:37.742Z,10.40
2018-03-29T16:57:06.041Z,10.20
2018-03-29T16:59:33.553Z,10.20
2018-03-29T17:02:01.047Z,10.10
2018-03-29T17:04:29.289Z,9.80
2018-03-29T17:06:56.765Z,9.80
2018-03-29T17:09:24.238Z,9.70
2018-03-29T17:11:51.723Z,9.60
2018-03-29T17:14:19.209Z,9.60
2018-03-29T17:16:46.720Z,9.50
2018-03-29T17:19:14.236Z,9.40
2018-03-29T17:21:42.475Z,9.20
2018-03-29T17:24:10.005Z,9.20
2018-03-29T17:26:37.577Z,9.10
2018-03-29T17:29:05.854Z,9.00
2018-03-29T17:31:33.334Z,8.90
2018-03-29T17:34:00.796Z,8.80
2018-03-29T17:36:28.285Z,8.80
2018-03-29T17:38:56.518Z,8.70
2018-03-29T17:41:24.060Z,8.70
2018-03-29T17:43:51.559Z,8.70
2018-03-29T17:46:19.071Z,8.70
2018-03-29T17:48:47.337Z,8.60
2018-03-29T17:51:15.054Z,8.60
2018-03-29T17:53:42.560Z,8.60
2018-03-29T17:56:10.079Z,8.60
2018-03-29T17:58:37.595Z,8.60
2018-03-29T18:01:05.115Z,8.50
2018-03-29T18:03:32.621Z,8.50
2018-03-29T18:06:01.315Z,8.50
2018-03-29T18:08:29.625Z,8.50
2018-03-29T18:10:57.112Z,8.40
2018-03-29T18:13:24.641Z,8.50
2018-03-29T18:15:52.157Z,8.50
2018-03-29T18:18:19.674Z,8.50
2018-03-29T18:20:47.213Z,8.50
2018-03-29T18:23:14.645Z,8.40
2018-03-29T18:25:42.272Z,8.50
2018-03-29T18:28:09.749Z,8.40
2018-03-29T18:30:37.258Z,8.40
2018-03-29T18:33:04.914Z,8.40
2018-03-29T18:35:32.439Z,8.40
2018-03-29T18:37:59.986Z,8.30
2018-03-29T18:40:27.493Z,8.30
2018-03-29T18:42:55.107Z,8.20
2018-03-29T18:45:22.606Z,8.20
2018-03-29T18:47:50.083Z,8.20
2018-03-29T18:50:17.598Z,8.10
2018-03-29T18:52:45.080Z,8.10
2018-03-29T18:55:14.148Z,7.90
2018-03-29T18:57:41.659Z,7.90
2018-03-29T19:00:09.139Z,7.80
2018-03-29T19:02:36.655Z,7.70
2018-03-29T19:05:04.198Z,7.60
2018-03-29T19:07:31.873Z,7.60
2018-03-29T19:09:59.364Z,7.50
2018-03-29T19:12:26.861Z,7.40
2018-03-29T19:14:55.131Z,7.20
2018-03-29T19:17:22.628Z,7.20
2018-03-29T19:19:50.148Z,7.20
2018-03-29T19:22:17.690Z,7.10
2018-03-29T19:24:45.173Z,7.00
2018-03-29T19:27:12.693Z,6.90
2018-03-29T19:29:40.245Z,6.90
2018-03-29T19:32:07.847Z,6.80
2018-03-29T19:34:35.401Z,6.80
2018-03-29T19:37:03.699Z,6.70
2018-03-29T19:39:31.947Z,6.60
2018-03-29T19:41:59.565Z,6.60
2018-03-29T19:44:27.125Z,6.60
2018-03-29T19:46:56.205Z,6.50
2018-03-29T19:49:23.733Z,6.50
2018-03-29T19:51:52.001Z,6.40
2018-03-29T19:54:20.239Z,6.30
2018-03-29T19:56:47.719Z,6.30
2018-03-29T19:59:15.788Z,6.20
2018-03-29T20:01:43.287Z,6.20
2018-03-29T20:04:10.771Z,6.20
2018-03-29T20:06:38.387Z,6.10
2018-03-29T20:09:05.877Z,6.10
2018-03-29T20:11:34.141Z,6.00
2018-03-29T20:14:02.394Z,6.00
2018-03-29T20:16:30.806Z,5.90
2018-03-29T20:18:58.306Z,5.90
2018-03-29T20:21:25.807Z,5.90
2018-03-29T20:23:53.314Z,5.80
2018-03-29T20:26:21.554Z,5.70
2018-03-29T20:28:49.088Z,5.70
2018-03-29T20:31:17.370Z,5.60
2018-03-29T20:33:44.943Z,5.60
2018-03-29T20:36:12.436Z,5.50
2018-03-29T20:38:39.958Z,5.50
2018-03-29T20:41:08.280Z,5.30
2018-03-29T20:43:35.768Z,5.30
2018-03-29T20:46:04.039Z,5.20
2018-03-29T20:48:31.620Z,5.20
2018-03-29T20:50:59.179Z,5.20
2018-03-29T20:53:26.834Z,5.10
2018-03-29T20:55:54.519Z,5.10
2018-03-29T20:58:22.046Z,5.00
2018-03-29T21:00:49.548Z,5.00
2018-03-29T21:03:17.871Z,4.90
2018-03-29T21:05:45.352Z,4.90
2018-03-29T21:08:12.846Z,4.90
2018-03-29T21:10:40.354Z,4.80
2018-03-29T21:13:07.864Z,4.80
2018-03-29T21:15:36.139Z,4.70
2018-03-29T21:18:03.628Z,4.70
2018-03-29T21:20:31.160Z,4.70
2018-03-29T21:22:58.722Z,4.70
2018-03-29T21:25:26.221Z,4.60
2018-03-29T21:27:53.735Z,4.60
2018-03-29T21:30:21.210Z,4.60
2018-03-29T21:32:48.739Z,4.50
2018-03-29T21:35:16.359Z,4.50
2018-03-29T21:37:43.811Z,4.50
2018-03-29T21:40:11.324Z,4.40
2018-03-29T21:42:38.816Z,4.40
2018-03-29T21:45:06.321Z,4.40
2018-03-29T21:47:33.909Z,5.20
2018-03-29T21:50:01.438Z,4.30
2018-03-29T21:52:29.740Z,4.30
2018-03-29T21:54:57.245Z,4.30
2018-03-29T21:57:24.771Z,4.30
2018-03-29T21:59:52.426Z,4.40
2018-03-29T22:02:19.923Z,4.40
2018-03-29T22:04:47.444Z,4.40
2018-03-29T22:07:14.930Z,4.50
2018-03-29T22:09:42.432Z,4.50
2018-03-29T22:12:09.965Z,4.50
2018-03-29T22:14:37.551Z,4.40
2018-03-29T22:17:05.801Z,4.30
2018-03-29T22:19:33.367Z,4.30
2018-03-29T22:22:00.807Z,4.20
2018-03-29T22:24:28.297Z,4.20
2018-03-29T22:26:55.804Z,4.20
2018-03-29T22:29:24.044Z,4.20
2018-03-29T22:31:51.574Z,4.20
2018-03-29T22:34:19.049Z,4.20
2018-03-29T22:36:46.545Z,4.10
2018-03-29T22:39:14.028Z,4.00
2018-03-29T22:41:42.295Z,3.90
2018-03-29T22:44:10.587Z,3.90
2018-03-29T22:46:38.063Z,3.90
2018-03-29T22:49:05.615Z,3.80
2018-03-29T22:51:33.103Z,3.80
2018-03-29T22:54:00.585Z,3.80
2018-03-29T22:56:28.204Z,3.80
2018-03-29T22:58:55.727Z,3.70
2018-03-29T23:01:24.001Z,3.70
2018-03-29T23:03:52.854Z,3.70
2018-03-29T23:06:20.513Z,3.70
2018-03-29T23:08:48.015Z,3.70
2018-03-29T23:11:15.633Z,3.60
2018-03-29T23:13:43.131Z,3.50
2018-03-29T23:16:10.632Z,3.50
2018-03-29T23:18:38.911Z,3.40
2018-03-29T23:21:06.453Z,3.40
2018-03-29T23:23:34.460Z,3.40
2018-03-29T23:26:02.012Z,3.40
2018-03-29T23:28:29.507Z,3.40
2018-03-29T23:30:57.021Z,3.40
2018-03-29T23:33:24.500Z,3.40
2018-03-29T23:35:52.781Z,3.30
2018-03-29T23:38:20.316Z,3.30
2018-03-29T23:40:47.795Z,3.30
2018-03-29T23:43:15.291Z,3.20
2018-03-29T23:45:43.604Z,3.10
2018-03-29T23:48:22.053Z,3.20
2018-03-29T23:50:49.538Z,3.10
2018-03-29T23:53:17.063Z,3.10
2018-03-29T23:55:45.069Z,3.10
2018-03-29T23:58:17.311Z,3.10
